Hlavní strana
METAR-TAF:

METAR-TAF

Letiště :

Kindersley, Saskatchewan, Kanada

zeměpisná šířka: 51-31N, zeměpisná délka: 109-10W, výška: 694 m

Aktuální stav počasí

Zpráva byla vytvořena před 1 hodinou a 14 minutami, v 07:00 UTC
Západoseverozápadní vítr 11 kt s nárazy do 17 kt
Teplota 2°C
Vlhkost vzduchu 80%
Tlak 1013 hPa
Viditelnost: 24.1 km
Skoro jasno ve výšce 7500 ft
Zataženo ve výšce 9200 ft

METAR: CYKY 150700Z 29011G17KT 15SM FEW075 OVC092 02/M01 A2991 RMK AC1AC7 SLP155

Čas: 02:14 (08:14 UTC)


TAF: chybějící

Stav a předpovědi počasí z více než 4 000 letišť (zprávy METAR a TAF).

Červené a žluté tečky na mapě představují dostupné meteorologické stanice.

Když kurzor umístíte na tečku, zobrazí se název stanice.

Pak kliknutím zobrazíte stav a předpověď počasí.

Chcete-li změnit mapu, kliknutím na zelené tlačítko se znaménkem +mapu přiblížíte, kliknutím na zelené tlačítko se znaménkem – mapu oddálíte a kliknutím na zelené šipky přejdete na sousední mapy.


METAR-TAF: